Elmore, Alabama
Current Conditions -  °F | °C
As of 4:58 PM on Thursday 18 Dec 2014 (Local Time) from KMXF Reporting Station
Overcast Overcast  
Wind Chill: 56°   Ceiling: 9000
Heat Index: 56°   Visibility: 10mi
Dew Point: 32°   Wind: 2mph
Humidity: 40%   Direction: 290°WNW
Pressure: 30.14"   Gusts: NA
Location:  32.54°N, 86.31°W
Report Text: KMXF 182258Z AUTO 29002KT 10SM OVC090 13/00 A3014 RMK AO2 SLP210 T01331001
Loading
Personal Weather Stations






























Interactive Weather Map New forecast layout! Learn more

10-Day Weather Forecast

Advertisements
Track Severe Weather on mobile